James M Cox Dayton International Airport
KDAY : now visible

Airfield :











YOU CAN JOIN US ON...

 
LOGIN :

Register | Disclaimer

   EN    FR    IT 

 









Legend :    VFR   Marginal VFR   IFR   Intensive IFR   Very Intensive IFR
Visi :
Ceiling :
>= 8 km
>= 3000ft
5 to 8 km
1000 to 3000 ft
1500m to 5 km
500 to 1000 ft
800 to 1500m
200 to 500 ft
< 800m
< 200 ft
Symbols :   Thunderstorms  Fog  Heavy snow  Heavy precipitations  Wind > 20 kt






- Airport Elevation : 1009 ft
- IATA code : DAY


KDAY - James M Cox Dayton International

CURRENT METAR :
  • 280020Z 31006KT 6SM BR OVC008 01/M02 A2999 RMK AO2 T00061017

EXPIRED METARs :
  • 272356Z 31009KT 7SM OVC010 01/M02 A2998 RMK AO2 SLP162 T00061017 10017 20006 51016
  • 272256Z 31008KT 6SM HZ OVC010 01/M02 A2997 RMK AO2 SLP156 T00111017
  • 272231Z 30006KT 5SM HZ OVC010 01/M02 A2996 RMK AO2 T00111017
  • 272156Z 31009KT 5SM BR OVC008 01/M02 A2995 RMK AO2 SLP152 T00061017

TAF KDAY
Valid from the 28 at 00:00 until the 29 at 00:00 UTC


272329Z 2800/2824 31006KT 6SM BR SCT008 OVC012
TEMPO 2802/2806 OVC008
FM280900 30006KT 4SM BR OVC012
FM281500 30006KT P6SM OVC015
FM282000 30006KT P6SM OVC022



MET'MAP, your aeronautical weather chart ! - Copyright ORBIFLY December 2007 - Disclaimer

ORBIFLY MET'MAP TEAM :

Programming & Development : Alexandra Zaïnal
Concept & original design : Baudouin d'Aumeries
Assistance for programming : Marc-Olivier Méhu
Technical & hardware support : Manuel Goepfert

Contact : metmap@orbifly.com




SOURCES & CREDITS :

   NOAA       Earth
Advisory